sensor_id;sensor_type;location;lat;lon;timestamp;P1;durP1;ratioP1;P2;durP2;ratioP2
30635;SDS011;17400;52.392;9.750;2022-12-29T00:01:45;3.70;;;1.75;;
30635;SDS011;17400;52.392;9.750;2022-12-29T00:04:13;1.63;;;1.40;;
30635;SDS011;17400;52.392;9.750;2022-12-29T00:06:42;2.78;;;1.40;;
30635;SDS011;17400;52.392;9.750;2022-12-29T00:09:10;1.20;;;1.02;;
30635;SDS011;17400;52.392;9.750;2022-12-29T00:11:39;2.15;;;1.25;;
30635;SDS011;17400;52.392;9.750;2022-12-29T00:14:07;1.80;;;1.40;;
30635;SDS011;17400;52.392;9.750;2022-12-29T00:16:55;3.40;;;1.08;;
30635;SDS011;17400;52.392;9.750;2022-12-29T00:19:23;1.15;;;0.77;;
30635;SDS011;17400;52.392;9.750;2022-12-29T00:22:08;2.28;;;1.40;;
30635;SDS011;17400;52.392;9.750;2022-12-29T00:24:54;2.63;;;1.50;;
30635;SDS011;17400;52.392;9.750;2022-12-29T00:27:40;2.78;;;1.35;;
30635;SDS011;17400;52.392;9.750;2022-12-29T00:30:33;1.35;;;1.20;;
30635;SDS011;17400;52.392;9.750;2022-12-29T00:33:24;1.73;;;1.20;;
30635;SDS011;17400;52.392;9.750;2022-12-29T00:36:12;1.27;;;0.95;;
30635;SDS011;17400;52.392;9.750;2022-12-29T00:38:45;2.47;;;1.38;;
30635;SDS011;17400;52.392;9.750;2022-12-29T00:41:33;1.73;;;0.88;;
30635;SDS011;17400;52.392;9.750;2022-12-29T00:44:18;1.77;;;0.98;;
30635;SDS011;17400;52.392;9.750;2022-12-29T00:46:46;2.17;;;0.60;;
30635;SDS011;17400;52.392;9.750;2022-12-29T00:49:15;2.97;;;1.25;;
30635;SDS011;17400;52.392;9.750;2022-12-29T00:51:58;2.63;;;1.70;;
30635;SDS011;17400;52.392;9.750;2022-12-29T00:54:28;2.33;;;0.85;;
30635;SDS011;17400;52.392;9.750;2022-12-29T00:56:56;1.58;;;0.80;;
30635;SDS011;17400;52.392;9.750;2022-12-29T00:59:24;1.40;;;0.65;;
30635;SDS011;17400;52.392;9.750;2022-12-29T01:01:53;2.00;;;1.25;;
30635;SDS011;17400;52.392;9.750;2022-12-29T01:04:24;0.80;;;0.80;;
30635;SDS011;17400;52.392;9.750;2022-12-29T01:06:53;3.30;;;1.20;;
30635;SDS011;17400;52.392;9.750;2022-12-29T01:09:21;2.35;;;1.20;;
30635;SDS011;17400;52.392;9.750;2022-12-29T01:12:07;1.33;;;0.70;;
30635;SDS011;17400;52.392;9.750;2022-12-29T01:14:36;1.85;;;0.98;;
30635;SDS011;17400;52.392;9.750;2022-12-29T01:17:04;1.30;;;0.90;;
30635;SDS011;17400;52.392;9.750;2022-12-29T01:19:34;1.98;;;1.17;;
30635;SDS011;17400;52.392;9.750;2022-12-29T01:22:01;1.48;;;0.98;;
30635;SDS011;17400;52.392;9.750;2022-12-29T01:24:29;1.85;;;1.13;;
30635;SDS011;17400;52.392;9.750;2022-12-29T01:26:57;2.65;;;1.33;;
30635;SDS011;17400;52.392;9.750;2022-12-29T01:29:24;3.22;;;0.82;;
30635;SDS011;17400;52.392;9.750;2022-12-29T01:31:52;1.98;;;1.10;;
30635;SDS011;17400;52.392;9.750;2022-12-29T01:34:19;2.13;;;1.35;;
30635;SDS011;17400;52.392;9.750;2022-12-29T01:36:49;2.22;;;1.13;;
30635;SDS011;17400;52.392;9.750;2022-12-29T01:39:16;1.95;;;1.40;;
30635;SDS011;17400;52.392;9.750;2022-12-29T01:41:44;1.13;;;0.80;;
30635;SDS011;17400;52.392;9.750;2022-12-29T01:47:16;1.67;;;0.90;;
30635;SDS011;17400;52.392;9.750;2022-12-29T01:49:50;2.30;;;1.38;;
30635;SDS011;17400;52.392;9.750;2022-12-29T01:52:21;2.85;;;1.05;;
30635;SDS011;17400;52.392;9.750;2022-12-29T01:54:52;1.50;;;0.70;;
30635;SDS011;17400;52.392;9.750;2022-12-29T01:57:24;1.67;;;1.08;;
30635;SDS011;17400;52.392;9.750;2022-12-29T01:59:55;2.28;;;1.10;;
30635;SDS011;17400;52.392;9.750;2022-12-29T02:02:25;1.95;;;1.15;;
30635;SDS011;17400;52.392;9.750;2022-12-29T02:04:58;1.17;;;0.63;;
30635;SDS011;17400;52.392;9.750;2022-12-29T02:07:31;4.03;;;0.80;;
30635;SDS011;17400;52.392;9.750;2022-12-29T02:09:59;1.35;;;0.90;;
30635;SDS011;17400;52.392;9.750;2022-12-29T02:12:29;1.33;;;1.00;;
30635;SDS011;17400;52.392;9.750;2022-12-29T02:14:57;1.02;;;0.80;;
30635;SDS011;17400;52.392;9.750;2022-12-29T02:17:33;3.92;;;1.30;;
30635;SDS011;17400;52.392;9.750;2022-12-29T02:20:24;1.48;;;0.90;;
30635;SDS011;17400;52.392;9.750;2022-12-29T02:23:19;1.40;;;0.82;;
30635;SDS011;17400;52.392;9.750;2022-12-29T02:26:08;2.10;;;1.15;;
30635;SDS011;17400;52.392;9.750;2022-12-29T02:29:04;2.95;;;1.30;;
30635;SDS011;17400;52.392;9.750;2022-12-29T02:31:50;2.00;;;1.05;;
30635;SDS011;17400;52.392;9.750;2022-12-29T02:34:22;1.63;;;0.55;;
30635;SDS011;17400;52.392;9.750;2022-12-29T02:37:00;1.52;;;0.88;;
30635;SDS011;17400;52.392;9.750;2022-12-29T02:39:34;1.30;;;0.63;;
30635;SDS011;17400;52.392;9.750;2022-12-29T02:42:07;0.68;;;0.65;;
30635;SDS011;17400;52.392;9.750;2022-12-29T02:44:42;2.17;;;0.90;;
30635;SDS011;17400;52.392;9.750;2022-12-29T02:47:21;0.93;;;0.63;;
30635;SDS011;17400;52.392;9.750;2022-12-29T02:49:54;2.83;;;0.95;;
30635;SDS011;17400;52.392;9.750;2022-12-29T02:52:30;1.27;;;0.90;;
30635;SDS011;17400;52.392;9.750;2022-12-29T02:55:01;1.83;;;0.98;;
30635;SDS011;17400;52.392;9.750;2022-12-29T02:57:31;1.55;;;1.05;;
30635;SDS011;17400;52.392;9.750;2022-12-29T03:00:01;1.65;;;0.90;;
30635;SDS011;17400;52.392;9.750;2022-12-29T03:02:47;1.42;;;0.82;;
30635;SDS011;17400;52.392;9.750;2022-12-29T03:05:33;1.25;;;0.80;;
30635;SDS011;17400;52.392;9.750;2022-12-29T03:08:13;2.58;;;1.38;;
30635;SDS011;17400;52.392;9.750;2022-12-29T03:10:53;4.55;;;0.75;;
30635;SDS011;17400;52.392;9.750;2022-12-29T03:13:28;1.85;;;0.77;;
30635;SDS011;17400;52.392;9.750;2022-12-29T03:16:21;2.47;;;1.00;;
30635;SDS011;17400;52.392;9.750;2022-12-29T03:18:56;1.17;;;0.75;;
30635;SDS011;17400;52.392;9.750;2022-12-29T03:21:29;3.63;;;1.23;;
30635;SDS011;17400;52.392;9.750;2022-12-29T03:24:20;1.63;;;0.98;;
30635;SDS011;17400;52.392;9.750;2022-12-29T03:26:54;2.50;;;1.27;;
30635;SDS011;17400;52.392;9.750;2022-12-29T03:29:24;2.50;;;1.23;;
30635;SDS011;17400;52.392;9.750;2022-12-29T03:31:56;1.33;;;0.80;;
30635;SDS011;17400;52.392;9.750;2022-12-29T03:34:28;2.05;;;0.95;;
30635;SDS011;17400;52.392;9.750;2022-12-29T03:36:58;1.15;;;0.60;;
30635;SDS011;17400;52.392;9.750;2022-12-29T03:39:30;1.88;;;0.68;;
30635;SDS011;17400;52.392;9.750;2022-12-29T03:42:00;2.20;;;0.90;;
30635;SDS011;17400;52.392;9.750;2022-12-29T03:44:31;1.20;;;0.70;;
30635;SDS011;17400;52.392;9.750;2022-12-29T03:47:00;1.25;;;0.77;;
30635;SDS011;17400;52.392;9.750;2022-12-29T03:49:29;1.33;;;0.70;;
30635;SDS011;17400;52.392;9.750;2022-12-29T03:51:57;1.83;;;0.77;;
30635;SDS011;17400;52.392;9.750;2022-12-29T03:54:24;1.98;;;0.60;;
30635;SDS011;17400;52.392;9.750;2022-12-29T03:56:52;1.60;;;0.70;;
30635;SDS011;17400;52.392;9.750;2022-12-29T03:59:20;1.30;;;0.73;;
30635;SDS011;17400;52.392;9.750;2022-12-29T04:01:48;2.42;;;0.80;;
30635;SDS011;17400;52.392;9.750;2022-12-29T04:04:15;0.32;;;0.28;;
30635;SDS011;17400;52.392;9.750;2022-12-29T04:06:45;0.47;;;0.45;;
30635;SDS011;17400;52.392;9.750;2022-12-29T04:09:13;1.40;;;0.90;;
30635;SDS011;17400;52.392;9.750;2022-12-29T04:11:42;1.98;;;0.75;;
30635;SDS011;17400;52.392;9.750;2022-12-29T04:14:10;1.13;;;0.77;;
30635;SDS011;17400;52.392;9.750;2022-12-29T04:16:38;0.80;;;0.65;;
30635;SDS011;17400;52.392;9.750;2022-12-29T04:19:06;1.05;;;0.60;;
30635;SDS011;17400;52.392;9.750;2022-12-29T04:21:34;0.70;;;0.50;;
30635;SDS011;17400;52.392;9.750;2022-12-29T04:24:03;0.30;;;0.30;;
30635;SDS011;17400;52.392;9.750;2022-12-29T04:26:32;1.35;;;0.80;;
30635;SDS011;17400;52.392;9.750;2022-12-29T04:29:00;0.70;;;0.40;;
30635;SDS011;17400;52.392;9.750;2022-12-29T04:31:28;2.60;;;1.13;;
30635;SDS011;17400;52.392;9.750;2022-12-29T04:33:56;1.63;;;0.57;;
30635;SDS011;17400;52.392;9.750;2022-12-29T04:36:25;1.20;;;0.50;;
30635;SDS011;17400;52.392;9.750;2022-12-29T04:38:55;0.75;;;0.40;;
30635;SDS011;17400;52.392;9.750;2022-12-29T04:41:24;0.93;;;0.80;;
30635;SDS011;17400;52.392;9.750;2022-12-29T04:43:52;1.52;;;0.52;;
30635;SDS011;17400;52.392;9.750;2022-12-29T04:46:20;0.85;;;0.63;;
30635;SDS011;17400;52.392;9.750;2022-12-29T04:48:47;0.90;;;0.50;;
30635;SDS011;17400;52.392;9.750;2022-12-29T04:51:15;0.45;;;0.30;;
30635;SDS011;17400;52.392;9.750;2022-12-29T04:53:43;1.65;;;0.70;;
30635;SDS011;17400;52.392;9.750;2022-12-29T04:56:11;1.30;;;0.82;;
30635;SDS011;17400;52.392;9.750;2022-12-29T04:58:40;1.15;;;0.77;;
30635;SDS011;17400;52.392;9.750;2022-12-29T05:01:07;4.15;;;0.73;;
30635;SDS011;17400;52.392;9.750;2022-12-29T05:03:35;1.38;;;0.80;;
30635;SDS011;17400;52.392;9.750;2022-12-29T05:06:03;1.23;;;0.93;;
30635;SDS011;17400;52.392;9.750;2022-12-29T05:08:30;2.05;;;0.47;;
30635;SDS011;17400;52.392;9.750;2022-12-29T05:10:58;2.08;;;0.80;;
30635;SDS011;17400;52.392;9.750;2022-12-29T05:13:26;0.88;;;0.60;;
30635;SDS011;17400;52.392;9.750;2022-12-29T05:15:55;0.77;;;0.47;;
30635;SDS011;17400;52.392;9.750;2022-12-29T05:18:23;1.40;;;0.63;;
30635;SDS011;17400;52.392;9.750;2022-12-29T05:20:51;0.85;;;0.60;;
30635;SDS011;17400;52.392;9.750;2022-12-29T05:23:19;0.63;;;0.50;;
30635;SDS011;17400;52.392;9.750;2022-12-29T05:25:46;1.33;;;0.68;;
30635;SDS011;17400;52.392;9.750;2022-12-29T05:28:14;1.25;;;0.70;;
30635;SDS011;17400;52.392;9.750;2022-12-29T05:30:43;1.65;;;0.30;;
30635;SDS011;17400;52.392;9.750;2022-12-29T05:33:12;1.77;;;0.50;;
30635;SDS011;17400;52.392;9.750;2022-12-29T05:35:40;0.52;;;0.43;;
30635;SDS011;17400;52.392;9.750;2022-12-29T05:38:09;1.17;;;0.57;;
30635;SDS011;17400;52.392;9.750;2022-12-29T05:40:36;0.90;;;0.70;;
30635;SDS011;17400;52.392;9.750;2022-12-29T05:43:04;2.13;;;0.38;;
30635;SDS011;17400;52.392;9.750;2022-12-29T05:45:33;0.75;;;0.40;;
30635;SDS011;17400;52.392;9.750;2022-12-29T05:48:00;0.40;;;0.30;;
30635;SDS011;17400;52.392;9.750;2022-12-29T05:50:29;1.95;;;0.50;;
30635;SDS011;17400;52.392;9.750;2022-12-29T05:52:57;2.08;;;1.02;;
30635;SDS011;17400;52.392;9.750;2022-12-29T05:55:24;0.30;;;0.28;;
30635;SDS011;17400;52.392;9.750;2022-12-29T05:57:52;1.30;;;0.50;;
30635;SDS011;17400;52.392;9.750;2022-12-29T06:00:20;0.50;;;0.50;;
30635;SDS011;17400;52.392;9.750;2022-12-29T06:02:49;1.05;;;0.40;;
30635;SDS011;17400;52.392;9.750;2022-12-29T06:05:17;2.00;;;0.70;;
30635;SDS011;17400;52.392;9.750;2022-12-29T06:07:46;1.52;;;0.70;;
30635;SDS011;17400;52.392;9.750;2022-12-29T06:10:13;1.13;;;0.50;;
30635;SDS011;17400;52.392;9.750;2022-12-29T06:12:41;0.40;;;0.20;;
30635;SDS011;17400;52.392;9.750;2022-12-29T06:15:09;0.22;;;0.22;;
30635;SDS011;17400;52.392;9.750;2022-12-29T06:17:38;0.82;;;0.57;;
30635;SDS011;17400;52.392;9.750;2022-12-29T06:20:07;3.67;;;0.70;;
30635;SDS011;17400;52.392;9.750;2022-12-29T06:22:36;0.90;;;0.60;;
30635;SDS011;17400;52.392;9.750;2022-12-29T06:25:06;1.67;;;0.85;;
30635;SDS011;17400;52.392;9.750;2022-12-29T06:27:34;0.88;;;0.65;;
30635;SDS011;17400;52.392;9.750;2022-12-29T06:30:02;0.98;;;0.75;;
30635;SDS011;17400;52.392;9.750;2022-12-29T06:32:29;1.33;;;0.55;;
30635;SDS011;17400;52.392;9.750;2022-12-29T06:34:57;1.90;;;0.40;;
30635;SDS011;17400;52.392;9.750;2022-12-29T06:37:25;0.77;;;0.55;;
30635;SDS011;17400;52.392;9.750;2022-12-29T06:39:53;1.95;;;0.80;;
30635;SDS011;17400;52.392;9.750;2022-12-29T06:42:22;0.93;;;0.55;;
30635;SDS011;17400;52.392;9.750;2022-12-29T06:44:49;0.85;;;0.47;;
30635;SDS011;17400;52.392;9.750;2022-12-29T06:47:18;1.75;;;0.68;;
30635;SDS011;17400;52.392;9.750;2022-12-29T06:49:46;1.55;;;0.40;;
30635;SDS011;17400;52.392;9.750;2022-12-29T06:52:13;0.70;;;0.50;;
30635;SDS011;17400;52.392;9.750;2022-12-29T06:54:41;0.88;;;0.55;;
30635;SDS011;17400;52.392;9.750;2022-12-29T06:57:09;1.13;;;0.60;;
30635;SDS011;17400;52.392;9.750;2022-12-29T06:59:37;0.68;;;0.47;;
30635;SDS011;17400;52.392;9.750;2022-12-29T07:02:05;0.80;;;0.40;;
30635;SDS011;17400;52.392;9.750;2022-12-29T07:04:33;0.80;;;0.57;;
30635;SDS011;17400;52.392;9.750;2022-12-29T07:07:01;0.45;;;0.28;;
30635;SDS011;17400;52.392;9.750;2022-12-29T07:09:28;0.32;;;0.32;;
30635;SDS011;17400;52.392;9.750;2022-12-29T07:11:56;0.30;;;0.30;;
30635;SDS011;17400;52.392;9.750;2022-12-29T07:14:23;1.25;;;0.55;;
30635;SDS011;17400;52.392;9.750;2022-12-29T07:16:52;0.95;;;0.45;;
30635;SDS011;17400;52.392;9.750;2022-12-29T07:19:20;1.13;;;0.57;;
30635;SDS011;17400;52.392;9.750;2022-12-29T07:21:48;4.05;;;0.80;;
30635;SDS011;17400;52.392;9.750;2022-12-29T07:24:15;6.15;;;0.60;;
30635;SDS011;17400;52.392;9.750;2022-12-29T07:26:43;0.38;;;0.15;;
30635;SDS011;17400;52.392;9.750;2022-12-29T07:29:11;1.40;;;0.77;;
30635;SDS011;17400;52.392;9.750;2022-12-29T07:31:39;3.58;;;0.30;;
30635;SDS011;17400;52.392;9.750;2022-12-29T07:34:09;1.20;;;0.30;;
30635;SDS011;17400;52.392;9.750;2022-12-29T07:36:36;0.73;;;0.38;;
30635;SDS011;17400;52.392;9.750;2022-12-29T07:39:04;2.25;;;0.80;;
30635;SDS011;17400;52.392;9.750;2022-12-29T07:41:32;3.20;;;0.40;;
30635;SDS011;17400;52.392;9.750;2022-12-29T07:44:00;1.00;;;0.52;;
30635;SDS011;17400;52.392;9.750;2022-12-29T07:46:28;0.25;;;0.22;;
30635;SDS011;17400;52.392;9.750;2022-12-29T07:49:17;0.43;;;0.30;;
30635;SDS011;17400;52.392;9.750;2022-12-29T07:51:45;0.28;;;0.17;;
30635;SDS011;17400;52.392;9.750;2022-12-29T07:54:13;0.95;;;0.30;;
30635;SDS011;17400;52.392;9.750;2022-12-29T07:56:40;0.57;;;0.20;;
30635;SDS011;17400;52.392;9.750;2022-12-29T07:59:08;4.95;;;0.40;;
30635;SDS011;17400;52.392;9.750;2022-12-29T08:01:36;0.85;;;0.52;;
30635;SDS011;17400;52.392;9.750;2022-12-29T08:04:04;1.23;;;0.50;;
30635;SDS011;17400;52.392;9.750;2022-12-29T08:06:33;2.85;;;0.40;;
30635;SDS011;17400;52.392;9.750;2022-12-29T08:09:01;0.10;;;0.10;;
30635;SDS011;17400;52.392;9.750;2022-12-29T08:11:41;0.57;;;0.40;;
30635;SDS011;17400;52.392;9.750;2022-12-29T08:14:10;0.35;;;0.30;;
30635;SDS011;17400;52.392;9.750;2022-12-29T08:16:38;0.38;;;0.30;;
30635;SDS011;17400;52.392;9.750;2022-12-29T08:19:06;1.55;;;0.75;;
30635;SDS011;17400;52.392;9.750;2022-12-29T08:21:35;0.50;;;0.40;;
30635;SDS011;17400;52.392;9.750;2022-12-29T08:24:03;1.23;;;0.60;;
30635;SDS011;17400;52.392;9.750;2022-12-29T08:26:31;0.43;;;0.43;;
30635;SDS011;17400;52.392;9.750;2022-12-29T08:28:58;0.50;;;0.40;;
30635;SDS011;17400;52.392;9.750;2022-12-29T08:31:26;1.73;;;0.73;;
30635;SDS011;17400;52.392;9.750;2022-12-29T08:33:54;1.33;;;0.73;;
30635;SDS011;17400;52.392;9.750;2022-12-29T08:36:23;2.58;;;0.88;;
30635;SDS011;17400;52.392;9.750;2022-12-29T08:38:53;2.05;;;0.80;;
30635;SDS011;17400;52.392;9.750;2022-12-29T08:41:21;1.90;;;0.90;;
30635;SDS011;17400;52.392;9.750;2022-12-29T08:43:49;2.92;;;0.80;;
30635;SDS011;17400;52.392;9.750;2022-12-29T08:46:17;1.90;;;0.70;;
30635;SDS011;17400;52.392;9.750;2022-12-29T08:48:45;1.65;;;0.95;;
30635;SDS011;17400;52.392;9.750;2022-12-29T08:51:13;4.78;;;0.93;;
30635;SDS011;17400;52.392;9.750;2022-12-29T08:53:48;1.70;;;0.93;;
30635;SDS011;17400;52.392;9.750;2022-12-29T08:56:18;1.00;;;0.40;;
30635;SDS011;17400;52.392;9.750;2022-12-29T08:58:46;2.38;;;1.17;;
30635;SDS011;17400;52.392;9.750;2022-12-29T09:01:14;3.83;;;1.33;;
30635;SDS011;17400;52.392;9.750;2022-12-29T09:03:41;2.22;;;0.90;;
30635;SDS011;17400;52.392;9.750;2022-12-29T09:06:29;1.45;;;0.57;;
30635;SDS011;17400;52.392;9.750;2022-12-29T09:09:06;0.88;;;0.50;;
30635;SDS011;17400;52.392;9.750;2022-12-29T09:11:35;2.72;;;0.85;;
30635;SDS011;17400;52.392;9.750;2022-12-29T09:14:03;1.30;;;0.75;;
30635;SDS011;17400;52.392;9.750;2022-12-29T09:16:32;2.47;;;0.95;;
30635;SDS011;17400;52.392;9.750;2022-12-29T09:19:00;6.22;;;1.35;;
30635;SDS011;17400;52.392;9.750;2022-12-29T09:21:27;1.98;;;0.80;;
30635;SDS011;17400;52.392;9.750;2022-12-29T09:23:55;2.42;;;1.02;;
30635;SDS011;17400;52.392;9.750;2022-12-29T09:26:23;2.45;;;0.70;;
30635;SDS011;17400;52.392;9.750;2022-12-29T09:28:53;3.63;;;1.10;;
30635;SDS011;17400;52.392;9.750;2022-12-29T09:31:21;2.15;;;0.80;;
30635;SDS011;17400;52.392;9.750;2022-12-29T09:33:48;3.97;;;0.82;;
30635;SDS011;17400;52.392;9.750;2022-12-29T09:36:16;3.80;;;1.45;;
30635;SDS011;17400;52.392;9.750;2022-12-29T09:38:43;3.20;;;1.40;;
30635;SDS011;17400;52.392;9.750;2022-12-29T09:41:14;1.17;;;1.00;;
30635;SDS011;17400;52.392;9.750;2022-12-29T09:43:54;2.72;;;1.02;;
30635;SDS011;17400;52.392;9.750;2022-12-29T09:46:31;3.35;;;1.33;;
30635;SDS011;17400;52.392;9.750;2022-12-29T09:49:13;2.63;;;0.90;;
30635;SDS011;17400;52.392;9.750;2022-12-29T09:51:48;1.52;;;1.02;;
30635;SDS011;17400;52.392;9.750;2022-12-29T09:54:24;0.85;;;0.82;;
30635;SDS011;17400;52.392;9.750;2022-12-29T09:57:04;1.88;;;1.27;;
30635;SDS011;17400;52.392;9.750;2022-12-29T09:59:40;3.85;;;2.20;;
30635;SDS011;17400;52.392;9.750;2022-12-29T10:02:16;4.85;;;3.38;;
30635;SDS011;17400;52.392;9.750;2022-12-29T10:04:56;5.65;;;2.83;;
30635;SDS011;17400;52.392;9.750;2022-12-29T10:07:26;10.63;;;6.38;;
30635;SDS011;17400;52.392;9.750;2022-12-29T10:10:03;8.60;;;3.47;;
30635;SDS011;17400;52.392;9.750;2022-12-29T10:12:58;6.28;;;3.38;;
30635;SDS011;17400;52.392;9.750;2022-12-29T10:15:40;3.50;;;2.13;;
30635;SDS011;17400;52.392;9.750;2022-12-29T10:18:32;4.10;;;2.55;;
30635;SDS011;17400;52.392;9.750;2022-12-29T10:21:22;3.92;;;1.40;;
30635;SDS011;17400;52.392;9.750;2022-12-29T10:23:59;0.93;;;0.80;;
30635;SDS011;17400;52.392;9.750;2022-12-29T10:26:31;1.80;;;1.08;;
30635;SDS011;17400;52.392;9.750;2022-12-29T10:29:04;5.93;;;1.10;;
30635;SDS011;17400;52.392;9.750;2022-12-29T10:31:35;2.53;;;0.90;;
30635;SDS011;17400;52.392;9.750;2022-12-29T10:34:10;2.33;;;0.93;;
30635;SDS011;17400;52.392;9.750;2022-12-29T10:36:45;1.10;;;0.73;;
30635;SDS011;17400;52.392;9.750;2022-12-29T10:39:16;0.93;;;0.90;;
30635;SDS011;17400;52.392;9.750;2022-12-29T10:41:49;1.50;;;1.02;;
30635;SDS011;17400;52.392;9.750;2022-12-29T10:44:20;0.80;;;0.70;;
30635;SDS011;17400;52.392;9.750;2022-12-29T10:46:52;1.17;;;0.90;;
30635;SDS011;17400;52.392;9.750;2022-12-29T10:49:22;1.55;;;1.00;;
30635;SDS011;17400;52.392;9.750;2022-12-29T10:51:54;2.10;;;1.10;;
30635;SDS011;17400;52.392;9.750;2022-12-29T10:54:25;1.80;;;1.20;;
30635;SDS011;17400;52.392;9.750;2022-12-29T10:56:56;3.40;;;1.15;;
30635;SDS011;17400;52.392;9.750;2022-12-29T10:59:29;6.03;;;1.02;;
30635;SDS011;17400;52.392;9.750;2022-12-29T11:02:02;1.90;;;0.82;;
30635;SDS011;17400;52.392;9.750;2022-12-29T11:04:51;0.93;;;0.60;;
30635;SDS011;17400;52.392;9.750;2022-12-29T11:07:24;2.13;;;1.27;;
30635;SDS011;17400;52.392;9.750;2022-12-29T11:09:53;5.90;;;1.23;;
30635;SDS011;17400;52.392;9.750;2022-12-29T11:12:23;1.95;;;1.05;;
30635;SDS011;17400;52.392;9.750;2022-12-29T11:15:02;3.05;;;1.30;;
30635;SDS011;17400;52.392;9.750;2022-12-29T11:17:45;2.22;;;1.38;;
30635;SDS011;17400;52.392;9.750;2022-12-29T11:20:26;1.70;;;1.25;;
30635;SDS011;17400;52.392;9.750;2022-12-29T11:22:56;1.63;;;1.23;;
30635;SDS011;17400;52.392;9.750;2022-12-29T11:25:24;4.35;;;1.17;;
30635;SDS011;17400;52.392;9.750;2022-12-29T11:27:56;3.60;;;1.40;;
30635;SDS011;17400;52.392;9.750;2022-12-29T11:30:27;1.67;;;0.90;;
30635;SDS011;17400;52.392;9.750;2022-12-29T11:32:59;2.85;;;1.40;;
30635;SDS011;17400;52.392;9.750;2022-12-29T11:35:32;1.38;;;0.85;;
30635;SDS011;17400;52.392;9.750;2022-12-29T11:38:02;2.88;;;0.77;;
30635;SDS011;17400;52.392;9.750;2022-12-29T11:40:31;3.33;;;1.52;;
30635;SDS011;17400;52.392;9.750;2022-12-29T11:43:06;4.90;;;1.40;;
30635;SDS011;17400;52.392;9.750;2022-12-29T11:45:34;2.35;;;1.08;;
30635;SDS011;17400;52.392;9.750;2022-12-29T11:48:07;2.50;;;1.08;;
30635;SDS011;17400;52.392;9.750;2022-12-29T11:50:37;1.70;;;0.80;;
30635;SDS011;17400;52.392;9.750;2022-12-29T11:53:13;2.00;;;0.80;;
30635;SDS011;17400;52.392;9.750;2022-12-29T11:55:50;2.80;;;1.40;;
30635;SDS011;17400;52.392;9.750;2022-12-29T11:58:21;4.50;;;3.00;;
30635;SDS011;17400;52.392;9.750;2022-12-29T12:00:55;3.67;;;1.98;;
30635;SDS011;17400;52.392;9.750;2022-12-29T12:03:27;3.85;;;1.50;;
30635;SDS011;17400;52.392;9.750;2022-12-29T12:05:58;5.05;;;1.10;;
30635;SDS011;17400;52.392;9.750;2022-12-29T12:08:31;2.30;;;0.77;;
30635;SDS011;17400;52.392;9.750;2022-12-29T12:11:04;2.38;;;0.88;;
30635;SDS011;17400;52.392;9.750;2022-12-29T12:13:39;4.88;;;1.90;;
30635;SDS011;17400;52.392;9.750;2022-12-29T12:16:16;0.90;;;0.55;;
30635;SDS011;17400;52.392;9.750;2022-12-29T12:18:50;4.50;;;1.17;;
30635;SDS011;17400;52.392;9.750;2022-12-29T12:21:23;0.98;;;0.75;;
30635;SDS011;17400;52.392;9.750;2022-12-29T12:26:53;2.85;;;1.23;;
30635;SDS011;17400;52.392;9.750;2022-12-29T12:29:26;2.33;;;0.80;;
30635;SDS011;17400;52.392;9.750;2022-12-29T12:32:04;2.50;;;1.02;;
30635;SDS011;17400;52.392;9.750;2022-12-29T12:34:46;2.55;;;0.57;;
30635;SDS011;17400;52.392;9.750;2022-12-29T12:43:21;2.42;;;0.90;;
30635;SDS011;17400;52.392;9.750;2022-12-29T12:46:28;2.05;;;0.80;;
30635;SDS011;17400;52.392;9.750;2022-12-29T12:49:29;0.90;;;0.57;;
30635;SDS011;17400;52.392;9.750;2022-12-29T12:52:32;2.90;;;1.05;;
30635;SDS011;17400;52.392;9.750;2022-12-29T12:55:21;1.30;;;0.80;;
30635;SDS011;17400;52.392;9.750;2022-12-29T12:58:03;2.90;;;0.80;;
30635;SDS011;17400;52.392;9.750;2022-12-29T13:00:40;5.03;;;2.00;;
30635;SDS011;17400;52.392;9.750;2022-12-29T13:03:17;11.02;;;3.78;;
30635;SDS011;17400;52.392;9.750;2022-12-29T13:06:01;4.38;;;1.98;;
30635;SDS011;17400;52.392;9.750;2022-12-29T13:12:04;6.88;;;1.60;;
30635;SDS011;17400;52.392;9.750;2022-12-29T13:14:43;4.10;;;2.25;;
30635;SDS011;17400;52.392;9.750;2022-12-29T13:17:20;2.58;;;1.20;;
30635;SDS011;17400;52.392;9.750;2022-12-29T13:19:59;1.98;;;1.42;;
30635;SDS011;17400;52.392;9.750;2022-12-29T13:22:38;2.50;;;0.90;;
30635;SDS011;17400;52.392;9.750;2022-12-29T13:25:19;2.85;;;1.00;;
30635;SDS011;17400;52.392;9.750;2022-12-29T13:27:57;4.50;;;2.00;;
30635;SDS011;17400;52.392;9.750;2022-12-29T13:30:57;3.47;;;0.90;;
30635;SDS011;17400;52.392;9.750;2022-12-29T13:33:58;1.55;;;0.90;;
30635;SDS011;17400;52.392;9.750;2022-12-29T13:36:52;3.22;;;0.95;;
30635;SDS011;17400;52.392;9.750;2022-12-29T13:39:51;1.55;;;0.95;;
30635;SDS011;17400;52.392;9.750;2022-12-29T13:42:48;4.68;;;1.20;;
30635;SDS011;17400;52.392;9.750;2022-12-29T13:45:43;6.70;;;0.95;;
30635;SDS011;17400;52.392;9.750;2022-12-29T13:48:39;5.35;;;1.00;;
30635;SDS011;17400;52.392;9.750;2022-12-29T13:51:14;0.75;;;0.70;;
30635;SDS011;17400;52.392;9.750;2022-12-29T13:54:00;3.00;;;0.95;;
30635;SDS011;17400;52.392;9.750;2022-12-29T13:56:39;3.13;;;1.10;;
30635;SDS011;17400;52.392;9.750;2022-12-29T13:59:15;0.40;;;0.35;;
30635;SDS011;17400;52.392;9.750;2022-12-29T14:01:53;4.32;;;0.73;;
30635;SDS011;17400;52.392;9.750;2022-12-29T14:04:27;3.78;;;0.95;;
30635;SDS011;17400;52.392;9.750;2022-12-29T14:07:00;2.08;;;1.00;;
30635;SDS011;17400;52.392;9.750;2022-12-29T14:09:38;2.40;;;1.25;;
30635;SDS011;17400;52.392;9.750;2022-12-29T14:12:26;5.57;;;1.38;;
30635;SDS011;17400;52.392;9.750;2022-12-29T14:15:02;1.73;;;1.10;;
30635;SDS011;17400;52.392;9.750;2022-12-29T14:17:35;3.65;;;1.23;;
30635;SDS011;17400;52.392;9.750;2022-12-29T14:20:05;3.58;;;0.75;;
30635;SDS011;17400;52.392;9.750;2022-12-29T14:22:55;1.90;;;1.33;;
30635;SDS011;17400;52.392;9.750;2022-12-29T14:28:48;1.52;;;0.80;;
30635;SDS011;17400;52.392;9.750;2022-12-29T14:31:40;1.90;;;0.85;;
30635;SDS011;17400;52.392;9.750;2022-12-29T14:37:17;1.27;;;1.00;;
30635;SDS011;17400;52.392;9.750;2022-12-29T14:40:02;0.95;;;0.63;;
30635;SDS011;17400;52.392;9.750;2022-12-29T14:42:33;2.30;;;1.73;;
30635;SDS011;17400;52.392;9.750;2022-12-29T14:45:02;2.00;;;1.23;;
30635;SDS011;17400;52.392;9.750;2022-12-29T14:47:36;4.28;;;1.13;;
30635;SDS011;17400;52.392;9.750;2022-12-29T14:50:12;4.22;;;1.98;;
30635;SDS011;17400;52.392;9.750;2022-12-29T14:52:44;5.90;;;2.72;;
30635;SDS011;17400;52.392;9.750;2022-12-29T14:55:30;3.72;;;1.50;;
30635;SDS011;17400;52.392;9.750;2022-12-29T14:58:07;1.35;;;0.95;;
30635;SDS011;17400;52.392;9.750;2022-12-29T15:00:43;4.10;;;1.45;;
30635;SDS011;17400;52.392;9.750;2022-12-29T15:03:14;2.50;;;1.40;;
30635;SDS011;17400;52.392;9.750;2022-12-29T15:05:50;2.92;;;1.67;;
30635;SDS011;17400;52.392;9.750;2022-12-29T15:08:22;3.05;;;1.52;;
30635;SDS011;17400;52.392;9.750;2022-12-29T15:10:54;1.55;;;0.82;;
30635;SDS011;17400;52.392;9.750;2022-12-29T15:13:32;7.95;;;1.67;;
30635;SDS011;17400;52.392;9.750;2022-12-29T15:16:02;2.42;;;1.02;;
30635;SDS011;17400;52.392;9.750;2022-12-29T15:18:31;1.85;;;1.15;;
30635;SDS011;17400;52.392;9.750;2022-12-29T15:21:02;7.25;;;1.77;;
30635;SDS011;17400;52.392;9.750;2022-12-29T15:23:32;6.50;;;1.40;;
30635;SDS011;17400;52.392;9.750;2022-12-29T15:26:02;1.60;;;1.10;;
30635;SDS011;17400;52.392;9.750;2022-12-29T15:28:37;2.13;;;1.48;;
30635;SDS011;17400;52.392;9.750;2022-12-29T15:31:09;2.78;;;1.10;;
30635;SDS011;17400;52.392;9.750;2022-12-29T15:33:40;3.03;;;1.08;;
30635;SDS011;17400;52.392;9.750;2022-12-29T15:36:11;3.15;;;1.35;;
30635;SDS011;17400;52.392;9.750;2022-12-29T15:38:41;1.92;;;0.75;;
30635;SDS011;17400;52.392;9.750;2022-12-29T15:41:14;4.68;;;1.50;;
30635;SDS011;17400;52.392;9.750;2022-12-29T15:43:53;3.90;;;2.00;;
30635;SDS011;17400;52.392;9.750;2022-12-29T15:46:32;3.30;;;1.40;;